createdAt,value
2018-01-18T00:01:08.866Z,996.94
2018-01-18T00:02:18.812Z,997.01
2018-01-18T00:03:28.764Z,997.23
2018-01-18T00:04:38.722Z,997.1
2018-01-18T00:05:48.679Z,997.05
2018-01-18T00:06:58.637Z,997.05
2018-01-18T00:08:08.323Z,997.04
2018-01-18T00:09:18.007Z,997
2018-01-18T00:10:27.686Z,997.01
2018-01-18T00:11:37.128Z,997.13
2018-01-18T00:12:47.075Z,997.19
2018-01-18T00:13:57.010Z,997.03
2018-01-18T00:15:06.700Z,997.08
2018-01-18T00:16:16.384Z,997.18
2018-01-18T00:17:26.080Z,997.15
2018-01-18T00:18:36.037Z,997.13
2018-01-18T00:19:45.992Z,997.09
2018-01-18T00:20:55.932Z,997.04
2018-01-18T00:22:05.878Z,997.07
2018-01-18T00:23:15.584Z,996.98
2018-01-18T00:24:25.261Z,997.05
2018-01-18T00:25:35.211Z,997.12
2018-01-18T00:26:44.905Z,997.13
2018-01-18T00:27:54.589Z,997.26
2018-01-18T00:29:04.543Z,997.18
2018-01-18T00:30:14.537Z,997.16
2018-01-18T00:31:24.222Z,997.2
2018-01-18T00:32:34.179Z,997.11
2018-01-18T00:33:44.126Z,997.12
2018-01-18T00:34:54.074Z,997.09
2018-01-18T00:36:04.010Z,997.08
2018-01-18T00:37:13.961Z,997.16
2018-01-18T00:38:23.902Z,997.27
2018-01-18T00:39:33.663Z,997.22
2018-01-18T00:40:43.616Z,997.18
2018-01-18T00:41:53.557Z,997.15
2018-01-18T00:43:03.231Z,997.17
2018-01-18T00:44:13.215Z,997.21
2018-01-18T00:45:23.165Z,997.18
2018-01-18T00:46:33.119Z,997.18
2018-01-18T00:47:42.815Z,997.16
2018-01-18T00:48:52.241Z,997.19
2018-01-18T00:50:02.183Z,997.17
2018-01-18T00:51:12.155Z,997.18
2018-01-18T00:52:22.173Z,997.22
2018-01-18T00:53:32.118Z,997.17
2018-01-18T00:54:41.794Z,997.15
2018-01-18T00:55:51.729Z,997.27
2018-01-18T00:57:01.663Z,997.32
2018-01-18T00:58:11.606Z,997.33
2018-01-18T00:59:21.035Z,997.3
2018-01-18T01:00:30.980Z,997.13
2018-01-18T01:01:40.926Z,997.15
2018-01-18T01:02:50.918Z,997.12
2018-01-18T01:04:00.853Z,997.09
2018-01-18T01:05:10.030Z,997.07
2018-01-18T01:06:19.968Z,997.07
2018-01-18T01:07:29.659Z,997.09
2018-01-18T01:08:39.351Z,997.17
2018-01-18T01:09:49.304Z,997.15
2018-01-18T01:10:59.257Z,997.2
2018-01-18T01:12:09.197Z,997.14
2018-01-18T01:13:18.887Z,997.2
2018-01-18T01:14:28.628Z,997.16
2018-01-18T01:15:38.573Z,997.17
2018-01-18T01:16:48.510Z,997.26
2018-01-18T01:17:58.213Z,997.18
2018-01-18T01:19:08.150Z,997.21
2018-01-18T01:20:18.097Z,997.18
2018-01-18T01:21:27.781Z,997.11
2018-01-18T01:22:37.725Z,997.18
2018-01-18T01:23:47.664Z,997.2
2018-01-18T01:24:57.360Z,997.21
2018-01-18T01:26:07.053Z,997.27
2018-01-18T01:27:17.250Z,997.27
2018-01-18T01:28:27.185Z,997.16
2018-01-18T01:29:36.882Z,997.25
2018-01-18T01:30:46.828Z,997.28
2018-01-18T01:31:56.510Z,997.27
2018-01-18T01:33:06.447Z,997.27
2018-01-18T01:34:16.138Z,997.35
2018-01-18T01:35:26.084Z,997.34
2018-01-18T01:36:36.034Z,997.37
2018-01-18T01:37:45.478Z,997.33
2018-01-18T01:38:55.418Z,997.32
2018-01-18T01:40:05.100Z,997.34
2018-01-18T01:41:14.785Z,997.3
2018-01-18T01:42:24.735Z,997.3
2018-01-18T01:43:34.422Z,997.3
2018-01-18T01:44:44.376Z,997.24
2018-01-18T01:45:54.326Z,997.22
2018-01-18T01:47:04.254Z,997.16
2018-01-18T01:48:13.421Z,997.25
2018-01-18T01:49:23.108Z,997.25
2018-01-18T01:50:32.267Z,997.24
2018-01-18T01:51:41.946Z,997.19
2018-01-18T01:52:51.637Z,997.18
2018-01-18T01:54:01.576Z,997.21
2018-01-18T01:55:11.001Z,997.25
2018-01-18T01:56:20.938Z,997.15
2018-01-18T01:57:30.880Z,997.23
2018-01-18T01:58:40.829Z,997.18
2018-01-18T01:59:50.768Z,997.18
2018-01-18T02:01:00.507Z,997.17
2018-01-18T02:02:09.935Z,997.16
2018-01-18T02:03:19.872Z,997.14
2018-01-18T02:04:29.813Z,997.1
2018-01-18T02:05:39.503Z,997.1
2018-01-18T02:06:49.436Z,997.09
2018-01-18T02:07:59.386Z,997.16
2018-01-18T02:09:09.328Z,997.14
2018-01-18T02:10:19.270Z,997.05
2018-01-18T02:11:29.203Z,997.09
2018-01-18T02:12:39.141Z,997.08
2018-01-18T02:13:48.816Z,997.07
2018-01-18T02:14:58.493Z,997
2018-01-18T02:16:08.441Z,997.06
2018-01-18T02:17:18.385Z,997.09
2018-01-18T02:18:28.065Z,997.12
2018-01-18T02:19:38.008Z,997.11
2018-01-18T02:20:47.693Z,997.02
2018-01-18T02:21:57.636Z,997.06
2018-01-18T02:23:07.584Z,997.11
2018-01-18T02:24:17.538Z,997.04
2018-01-18T02:25:27.276Z,997.06
2018-01-18T02:26:37.212Z,997.09
2018-01-18T02:27:46.896Z,997.14
2018-01-18T02:28:56.591Z,997.14
2018-01-18T02:30:06.281Z,997.05
2018-01-18T02:31:15.969Z,997.07
2018-01-18T02:32:25.909Z,997.09
2018-01-18T02:33:35.391Z,997.15
2018-01-18T02:34:45.078Z,997.18
2018-01-18T02:35:55.025Z,997.15
2018-01-18T02:37:04.718Z,997.12
2018-01-18T02:38:14.672Z,997.16
2018-01-18T02:39:24.602Z,997.23
2018-01-18T02:40:34.290Z,997.2
2018-01-18T02:41:44.240Z,997.21
2018-01-18T02:42:53.935Z,997.27
2018-01-18T02:44:03.614Z,997.17
2018-01-18T02:45:13.291Z,997.15
2018-01-18T02:46:23.243Z,997.13
2018-01-18T02:47:32.932Z,997.19
2018-01-18T02:48:42.878Z,997.11
2018-01-18T02:49:52.574Z,997.13
2018-01-18T02:51:02.274Z,997.09
2018-01-18T02:52:12.227Z,997.12
2018-01-18T02:53:21.919Z,997.17
2018-01-18T02:54:31.608Z,997.15
2018-01-18T02:55:41.300Z,997.11
2018-01-18T02:56:51.264Z,997.12
2018-01-18T02:58:00.955Z,997.05
2018-01-18T02:59:10.637Z,997.05
2018-01-18T03:00:20.585Z,997.03
2018-01-18T03:01:30.268Z,997.03
2018-01-18T03:02:40.201Z,997.03
2018-01-18T03:03:50.146Z,997
2018-01-18T03:05:00.063Z,997.01
2018-01-18T03:06:10.012Z,997
2018-01-18T03:07:19.962Z,996.96
2018-01-18T03:08:29.902Z,996.86
2018-01-18T03:09:39.868Z,996.8
2018-01-18T03:10:49.561Z,996.81
2018-01-18T03:11:59.246Z,996.8
2018-01-18T03:13:09.185Z,996.79
2018-01-18T03:14:18.879Z,996.76
2018-01-18T03:15:28.822Z,996.78
2018-01-18T03:16:38.765Z,996.77
2018-01-18T03:17:48.456Z,996.77
2018-01-18T03:18:58.132Z,996.77
2018-01-18T03:20:07.822Z,996.78
2018-01-18T03:21:17.757Z,996.8
2018-01-18T03:22:27.438Z,996.73
2018-01-18T03:23:37.379Z,996.76
2018-01-18T03:24:47.330Z,996.65
2018-01-18T03:25:57.271Z,996.63
2018-01-18T03:27:07.225Z,996.7
2018-01-18T03:28:17.156Z,996.72
2018-01-18T03:29:26.849Z,996.74
2018-01-18T03:30:36.783Z,996.73
2018-01-18T03:31:46.480Z,996.7
2018-01-18T03:32:56.155Z,996.65
2018-01-18T03:34:06.140Z,996.73
2018-01-18T03:35:16.091Z,996.69
2018-01-18T03:36:26.034Z,996.7
2018-01-18T03:37:35.464Z,996.72
2018-01-18T03:38:45.404Z,996.73
2018-01-18T03:39:55.346Z,996.72
2018-01-18T03:41:05.304Z,996.74
2018-01-18T03:42:15.264Z,996.7
2018-01-18T03:43:25.206Z,996.64
2018-01-18T03:44:35.142Z,996.78
2018-01-18T03:45:44.839Z,996.67
2018-01-18T03:46:54.525Z,996.69
2018-01-18T03:48:04.465Z,996.62
2018-01-18T03:49:14.414Z,996.6
2018-01-18T03:50:24.353Z,996.6
2018-01-18T03:51:34.287Z,996.64
2018-01-18T03:52:44.236Z,996.57
2018-01-18T03:53:54.214Z,996.56
2018-01-18T03:55:04.157Z,996.56
2018-01-18T03:56:13.834Z,996.49
2018-01-18T03:57:23.779Z,996.47
2018-01-18T03:58:33.471Z,996.49
2018-01-18T03:59:43.416Z,996.4
2018-01-18T04:00:53.356Z,996.47
2018-01-18T04:02:03.295Z,996.41
2018-01-18T04:03:12.978Z,996.49
2018-01-18T04:04:22.661Z,996.47
2018-01-18T04:05:32.647Z,996.46
2018-01-18T04:06:42.582Z,996.45
2018-01-18T04:07:52.519Z,996.43
2018-01-18T04:09:02.044Z,996.43
2018-01-18T04:10:11.999Z,996.38
2018-01-18T04:11:21.945Z,996.42
2018-01-18T04:12:31.887Z,996.38
2018-01-18T04:13:41.836Z,996.34
2018-01-18T04:14:51.514Z,996.39
2018-01-18T04:16:01.454Z,996.4
2018-01-18T04:17:11.393Z,996.36
2018-01-18T04:18:21.086Z,996.39
2018-01-18T04:19:31.017Z,996.32
2018-01-18T04:20:40.708Z,996.33
2018-01-18T04:21:50.403Z,996.27
2018-01-18T04:22:59.839Z,996.2
2018-01-18T04:24:09.529Z,996.24
2018-01-18T04:25:19.475Z,996.12
2018-01-18T04:26:29.422Z,996.08
2018-01-18T04:27:39.366Z,996.06
2018-01-18T04:28:49.307Z,996.04
2018-01-18T04:29:59.257Z,996.04
2018-01-18T04:31:09.197Z,996.05
2018-01-18T04:32:18.626Z,996.05
2018-01-18T04:33:28.597Z,996.04
2018-01-18T04:34:38.280Z,995.99
2018-01-18T04:35:47.956Z,996.01
2018-01-18T04:36:57.634Z,995.95
2018-01-18T04:38:07.311Z,996.02
2018-01-18T04:39:17.045Z,995.97
2018-01-18T04:40:26.724Z,996.01
2018-01-18T04:41:36.412Z,995.98
2018-01-18T04:42:46.347Z,995.99
2018-01-18T04:43:56.299Z,995.98
2018-01-18T04:45:06.243Z,996.05
2018-01-18T04:46:15.941Z,996.14
2018-01-18T04:47:25.619Z,996.13
2018-01-18T04:48:35.051Z,996.08
2018-01-18T04:49:44.742Z,996.1
2018-01-18T04:50:54.426Z,996.1
2018-01-18T04:52:04.135Z,996.1
2018-01-18T04:53:13.559Z,996.09
2018-01-18T04:54:23.247Z,996.03
2018-01-18T04:55:33.200Z,996.08
2018-01-18T04:56:43.142Z,996.05
2018-01-18T04:57:52.822Z,996
2018-01-18T04:59:02.259Z,995.94
2018-01-18T05:00:11.941Z,995.99
2018-01-18T05:01:21.641Z,995.98
2018-01-18T05:02:31.327Z,995.99
2018-01-18T05:03:41.013Z,996.08
2018-01-18T05:04:50.703Z,995.92
2018-01-18T05:06:00.719Z,995.87
2018-01-18T05:07:10.658Z,995.91
2018-01-18T05:08:20.085Z,995.91
2018-01-18T05:09:29.802Z,995.9
2018-01-18T05:10:39.746Z,995.85
2018-01-18T05:11:49.695Z,995.82
2018-01-18T05:12:59.665Z,995.87
2018-01-18T05:14:09.348Z,995.87
2018-01-18T05:15:19.299Z,995.79
2018-01-18T05:16:29.230Z,995.73
2018-01-18T05:17:39.181Z,995.66
2018-01-18T05:18:49.121Z,995.63
2018-01-18T05:19:59.073Z,995.65
2018-01-18T05:21:09.028Z,995.64
2018-01-18T05:22:18.978Z,995.72
2018-01-18T05:23:28.925Z,995.67
2018-01-18T05:24:38.341Z,995.71
2018-01-18T05:25:47.771Z,995.76
2018-01-18T05:26:57.698Z,995.76
2018-01-18T05:28:07.391Z,995.78
2018-01-18T05:29:17.352Z,995.78
2018-01-18T05:30:27.027Z,995.73
2018-01-18T05:31:36.199Z,995.7
2018-01-18T05:32:46.143Z,995.75
2018-01-18T05:33:56.082Z,995.69
2018-01-18T05:35:05.770Z,995.64
2018-01-18T05:36:15.717Z,995.7
2018-01-18T05:37:25.705Z,995.48
2018-01-18T05:38:35.663Z,995.41
2018-01-18T05:39:45.612Z,995.45
2018-01-18T05:40:55.552Z,995.34
2018-01-18T05:42:05.532Z,995.35
2018-01-18T05:43:15.474Z,995.27
2018-01-18T05:44:25.497Z,995.29
2018-01-18T05:45:35.439Z,995.23
2018-01-18T05:46:45.389Z,995.21
2018-01-18T05:47:55.351Z,995.15
2018-01-18T05:49:05.037Z,995.1
2018-01-18T05:50:14.968Z,995.13
2018-01-18T05:51:24.902Z,995.02
2018-01-18T05:52:34.584Z,994.94
2018-01-18T05:53:44.527Z,994.93
2018-01-18T05:54:54.472Z,994.92
2018-01-18T05:56:04.423Z,994.95
2018-01-18T05:57:14.118Z,995
2018-01-18T05:58:23.815Z,995.01
2018-01-18T05:59:34.360Z,994.86
2018-01-18T06:00:44.046Z,994.85
2018-01-18T06:01:53.994Z,994.85
2018-01-18T06:03:03.950Z,994.89
2018-01-18T06:04:13.888Z,994.81
2018-01-18T06:05:23.843Z,994.78
2018-01-18T06:06:33.791Z,994.71
2018-01-18T06:07:43.484Z,994.66
2018-01-18T06:08:53.166Z,994.57
2018-01-18T06:10:03.105Z,994.64
2018-01-18T06:11:13.040Z,994.54
2018-01-18T06:12:22.726Z,994.55
2018-01-18T06:13:32.668Z,994.52
2018-01-18T06:14:42.724Z,994.43
2018-01-18T06:15:52.418Z,994.34
2018-01-18T06:17:02.386Z,994.38
2018-01-18T06:18:12.326Z,994.31
2018-01-18T06:19:22.272Z,994.32
2018-01-18T06:20:32.243Z,994.26
2018-01-18T06:21:42.174Z,994.28
2018-01-18T06:22:51.604Z,994.19
2018-01-18T06:24:01.291Z,994.27
2018-01-18T06:25:11.241Z,994.23
2018-01-18T06:26:21.190Z,994.2
2018-01-18T06:27:30.901Z,994.16
2018-01-18T06:28:40.621Z,994.18
2018-01-18T06:29:50.330Z,994.22
2018-01-18T06:31:00.277Z,994.21
2018-01-18T06:32:09.707Z,994.15
2018-01-18T06:33:19.653Z,994.31
2018-01-18T06:34:29.080Z,994.17
2018-01-18T06:35:38.524Z,994.17
2018-01-18T06:36:48.463Z,994.15
2018-01-18T06:37:58.451Z,994.24
2018-01-18T06:39:08.402Z,994.16
2018-01-18T06:40:18.361Z,994.22
2018-01-18T06:41:28.046Z,994.12
2018-01-18T06:42:38.003Z,994.14
2018-01-18T06:43:47.992Z,994.1
2018-01-18T06:44:57.931Z,994.08
2018-01-18T06:46:07.906Z,993.99
2018-01-18T06:47:17.856Z,993.92
2018-01-18T06:48:27.790Z,993.98
2018-01-18T06:49:37.747Z,993.94
2018-01-18T06:50:47.716Z,993.9
2018-01-18T06:51:57.672Z,993.84
2018-01-18T06:53:07.366Z,993.89
2018-01-18T06:54:17.314Z,993.86
2018-01-18T06:55:27.248Z,993.75
2018-01-18T06:56:36.930Z,993.77
2018-01-18T06:57:46.620Z,993.67
2018-01-18T06:58:56.631Z,993.66
2018-01-18T07:00:07.831Z,993.64
2018-01-18T07:01:17.766Z,993.62
2018-01-18T07:02:27.776Z,993.58
2018-01-18T07:03:37.716Z,993.66
2018-01-18T07:04:47.450Z,993.48
2018-01-18T07:05:57.396Z,993.52
2018-01-18T07:07:07.163Z,993.45
2018-01-18T07:08:17.110Z,993.47
2018-01-18T07:09:27.052Z,993.4
2018-01-18T07:10:37.006Z,993.33
2018-01-18T07:11:46.711Z,993.35
2018-01-18T07:12:56.656Z,993.24
2018-01-18T07:14:06.618Z,993.25
2018-01-18T07:15:16.572Z,993.27
2018-01-18T07:16:26.243Z,993.13
2018-01-18T07:17:35.957Z,993.12
2018-01-18T07:18:46.153Z,993.1
2018-01-18T07:19:56.132Z,993.07
2018-01-18T07:21:06.112Z,993.02
2018-01-18T07:22:15.753Z,993
2018-01-18T07:23:25.440Z,992.96
2018-01-18T07:24:35.372Z,992.87
2018-01-18T07:25:45.071Z,992.79
2018-01-18T07:26:54.512Z,992.78
2018-01-18T07:28:04.474Z,992.82
2018-01-18T07:29:14.429Z,992.78
2018-01-18T07:30:24.372Z,992.74
2018-01-18T07:31:34.061Z,992.68
2018-01-18T07:32:44.006Z,992.67
2018-01-18T07:33:53.946Z,992.66
2018-01-18T07:35:03.901Z,992.64
2018-01-18T07:36:13.587Z,992.63
2018-01-18T07:37:23.537Z,992.56
2018-01-18T07:38:33.486Z,992.5
2018-01-18T07:39:42.931Z,992.45
2018-01-18T07:40:52.619Z,992.38
2018-01-18T07:42:02.340Z,992.35
2018-01-18T07:43:12.301Z,992.11
2018-01-18T07:44:22.255Z,992.29
2018-01-18T07:45:32.200Z,992.31
2018-01-18T07:46:41.911Z,992.23
2018-01-18T07:47:51.958Z,992.03
2018-01-18T07:49:01.919Z,992.04
2018-01-18T07:50:11.887Z,991.99
2018-01-18T07:51:21.866Z,991.93
2018-01-18T07:52:31.829Z,991.92
2018-01-18T07:53:41.797Z,991.85
2018-01-18T07:54:51.495Z,991.77
2018-01-18T07:56:01.459Z,991.77
2018-01-18T07:57:11.197Z,991.67
2018-01-18T07:58:20.909Z,991.63
2018-01-18T07:59:30.376Z,991.58
2018-01-18T08:00:40.367Z,991.51
2018-01-18T08:01:50.355Z,991.44
2018-01-18T08:03:00.328Z,991.47
2018-01-18T08:04:10.016Z,991.38
2018-01-18T08:05:19.977Z,991.37
2018-01-18T08:06:29.916Z,991.26
2018-01-18T08:07:39.095Z,991.19
2018-01-18T08:08:48.547Z,991.17
2018-01-18T08:09:58.513Z,991.14
2018-01-18T08:11:08.457Z,991.04
2018-01-18T08:12:18.173Z,991.09
2018-01-18T08:13:27.871Z,991.01
2018-01-18T08:14:37.827Z,990.98
2018-01-18T08:15:47.264Z,990.94
2018-01-18T08:16:57.014Z,990.9
2018-01-18T08:18:06.984Z,990.84
2018-01-18T08:19:16.711Z,990.8
2018-01-18T08:20:26.681Z,990.79
2018-01-18T08:21:36.648Z,990.77
2018-01-18T08:22:46.593Z,990.77
2018-01-18T08:23:56.034Z,990.74
2018-01-18T08:25:05.995Z,990.76
2018-01-18T08:26:15.948Z,990.61
2018-01-18T08:27:25.662Z,990.59
2018-01-18T08:28:35.624Z,990.61
2018-01-18T08:29:45.327Z,990.49
2018-01-18T08:30:55.292Z,990.51
2018-01-18T08:32:05.029Z,990.41
2018-01-18T08:33:14.723Z,990.34
2018-01-18T08:34:24.683Z,990.37
2018-01-18T08:35:34.634Z,990.35
2018-01-18T08:36:44.577Z,990.28
2018-01-18T08:37:54.526Z,990.3
2018-01-18T08:39:04.213Z,990.27
2018-01-18T08:40:14.163Z,990.21
2018-01-18T08:41:24.173Z,990.17
2018-01-18T08:42:33.903Z,990.03
2018-01-18T08:43:43.851Z,990
2018-01-18T08:44:53.817Z,990.01
2018-01-18T08:46:03.499Z,989.9
2018-01-18T08:47:13.443Z,989.9
2018-01-18T08:48:23.398Z,989.91
2018-01-18T08:49:33.369Z,989.81
2018-01-18T08:50:43.343Z,989.76
2018-01-18T08:51:53.325Z,989.72
2018-01-18T08:53:03.275Z,989.64
2018-01-18T08:54:12.970Z,989.69
2018-01-18T08:55:22.902Z,989.64
2018-01-18T08:56:32.852Z,989.56
2018-01-18T08:57:42.854Z,989.46
2018-01-18T08:58:52.989Z,989.4
2018-01-18T09:00:02.673Z,989.31
2018-01-18T09:01:12.658Z,989.29
2018-01-18T09:02:22.345Z,989.25
2018-01-18T09:03:32.041Z,989.2
2018-01-18T09:04:42.004Z,989.16
2018-01-18T09:05:51.690Z,989.04
2018-01-18T09:07:01.951Z,989.02
2018-01-18T09:08:11.647Z,989.04
2018-01-18T09:09:21.614Z,989.04
2018-01-18T09:10:31.565Z,989.02
2018-01-18T09:11:41.519Z,989.01
2018-01-18T09:12:51.479Z,988.91
2018-01-18T09:14:01.437Z,988.9
2018-01-18T09:15:11.388Z,988.86
2018-01-18T09:16:21.366Z,988.74
2018-01-18T09:17:31.326Z,988.73
2018-01-18T09:18:41.277Z,988.64
2018-01-18T09:19:50.474Z,988.6
2018-01-18T09:21:00.472Z,988.49
2018-01-18T09:22:10.499Z,988.47
2018-01-18T09:23:20.448Z,988.43
2018-01-18T09:24:30.410Z,988.28
2018-01-18T09:25:39.828Z,988.22
2018-01-18T09:26:49.832Z,988.15
2018-01-18T09:27:59.516Z,988.1
2018-01-18T09:29:09.336Z,988.01
2018-01-18T09:30:19.307Z,987.89
2018-01-18T09:31:28.990Z,987.79
2018-01-18T09:32:38.635Z,987.78
2018-01-18T09:33:48.314Z,987.72
2018-01-18T09:34:58.028Z,987.57
2018-01-18T09:36:07.989Z,987.59
2018-01-18T09:37:17.948Z,987.46
2018-01-18T09:38:27.890Z,987.28
2018-01-18T09:39:37.561Z,987.14
2018-01-18T09:40:47.309Z,987.17
2018-01-18T09:41:57.135Z,987.07
2018-01-18T09:43:07.088Z,987.03
2018-01-18T09:44:16.794Z,986.96
2018-01-18T09:45:26.236Z,986.91
2018-01-18T09:46:36.253Z,986.89
2018-01-18T09:47:45.954Z,986.95
2018-01-18T09:48:55.928Z,986.97
2018-01-18T09:50:05.359Z,986.88
2018-01-18T09:51:15.038Z,986.85
2018-01-18T09:52:24.985Z,986.73
2018-01-18T09:53:34.432Z,986.7
2018-01-18T09:54:44.390Z,986.71
2018-01-18T09:55:54.348Z,986.7
2018-01-18T09:57:04.314Z,986.53
2018-01-18T09:58:14.308Z,986.61
2018-01-18T09:59:24.027Z,986.52
2018-01-18T10:00:33.736Z,986.53
2018-01-18T10:01:43.448Z,986.45
2018-01-18T10:02:53.460Z,986.32
2018-01-18T10:04:03.178Z,986.28
2018-01-18T10:05:13.130Z,986.21
2018-01-18T10:06:22.832Z,986.14
2018-01-18T10:07:32.805Z,986.02
2018-01-18T10:08:42.779Z,985.97
2018-01-18T10:09:52.739Z,985.77
2018-01-18T10:11:02.697Z,985.58
2018-01-18T10:12:12.451Z,985.65
2018-01-18T10:13:21.938Z,985.57
2018-01-18T10:14:31.896Z,985.45
2018-01-18T10:15:41.906Z,985.43
2018-01-18T10:16:51.931Z,985.38
2018-01-18T10:18:01.873Z,985.35
2018-01-18T10:19:11.837Z,985.23
2018-01-18T10:20:21.552Z,985.25
2018-01-18T10:21:31.527Z,985.07
2018-01-18T10:22:41.496Z,984.86
2018-01-18T10:23:51.184Z,984.87
2018-01-18T10:25:01.123Z,984.68
2018-01-18T10:26:11.116Z,984.71
2018-01-18T10:27:20.819Z,984.62
2018-01-18T10:28:30.838Z,984.62
2018-01-18T10:29:40.804Z,984.6
2018-01-18T10:30:50.757Z,984.53
2018-01-18T10:32:00.955Z,984.45
2018-01-18T10:33:10.658Z,984.39
2018-01-18T10:34:20.623Z,984.17
2018-01-18T10:35:30.605Z,984.22
2018-01-18T10:36:40.605Z,984.2
2018-01-18T10:37:50.688Z,984.07
2018-01-18T10:39:00.675Z,984.09
2018-01-18T10:40:10.639Z,984.1
2018-01-18T10:41:20.603Z,984.02
2018-01-18T10:42:30.560Z,983.97
2018-01-18T10:43:40.259Z,983.94
2018-01-18T10:44:50.312Z,983.86
2018-01-18T10:46:00.278Z,983.82
2018-01-18T10:47:10.259Z,983.58
2018-01-18T10:48:20.221Z,983.53
2018-01-18T10:49:30.209Z,983.43
2018-01-18T10:50:40.175Z,983.31
2018-01-18T10:51:50.011Z,983.17
2018-01-18T10:52:59.741Z,983.09
2018-01-18T10:54:09.697Z,983.1
2018-01-18T10:55:19.679Z,982.97
2018-01-18T10:56:29.663Z,982.92
2018-01-18T10:57:39.601Z,982.63
2018-01-18T10:58:49.305Z,982.88
2018-01-18T10:59:59.771Z,982.68
2018-01-18T11:01:09.543Z,982.57
2018-01-18T11:02:19.266Z,982.43
2018-01-18T11:03:29.253Z,982.28
2018-01-18T11:04:39.249Z,982.35
2018-01-18T11:05:49.250Z,982.24
2018-01-18T11:06:58.955Z,982.11
2018-01-18T11:08:08.908Z,982.16
2018-01-18T11:09:18.860Z,982.12
2018-01-18T11:10:28.900Z,982.11
2018-01-18T11:11:38.885Z,982.14
2018-01-18T11:12:48.833Z,982.11
2018-01-18T11:13:58.552Z,982.03
2018-01-18T11:15:08.561Z,981.81
2018-01-18T11:16:18.530Z,981.72
2018-01-18T11:17:28.497Z,981.73
2018-01-18T11:18:38.465Z,981.76
2018-01-18T11:19:48.158Z,981.67
2018-01-18T11:20:58.114Z,981.67
2018-01-18T11:22:07.804Z,981.64
2018-01-18T11:23:17.765Z,981.57
2018-01-18T11:24:27.491Z,981.48
2018-01-18T11:25:37.455Z,981.4
2018-01-18T11:26:47.410Z,981.39
2018-01-18T11:27:57.371Z,981.32
2018-01-18T11:29:07.088Z,981.28
2018-01-18T11:30:17.053Z,981.2
2018-01-18T11:31:26.754Z,981.07
2018-01-18T11:32:36.704Z,981.07
2018-01-18T11:33:46.652Z,981.03
2018-01-18T11:34:56.601Z,980.84
2018-01-18T11:36:06.552Z,980.77
2018-01-18T11:37:16.282Z,980.81
2018-01-18T11:38:26.248Z,980.79
2018-01-18T11:39:36.200Z,980.92
2018-01-18T11:40:45.907Z,980.82
2018-01-18T11:41:55.599Z,980.67
2018-01-18T11:43:05.294Z,980.57
2018-01-18T11:44:15.259Z,980.5
2018-01-18T11:45:25.225Z,980.51
2018-01-18T11:46:35.177Z,980.39
2018-01-18T11:47:45.250Z,980.32
2018-01-18T11:48:55.182Z,980.3
2018-01-18T11:50:05.153Z,980.05
2018-01-18T11:51:15.105Z,979.82
2018-01-18T11:52:24.536Z,979.87
2018-01-18T11:53:34.477Z,979.96
2018-01-18T11:54:44.423Z,979.86
2018-01-18T11:55:54.114Z,980.02
2018-01-18T11:57:04.102Z,979.83
2018-01-18T11:58:14.035Z,979.94
2018-01-18T11:59:23.993Z,979.83
2018-01-18T12:00:33.703Z,979.57
2018-01-18T12:01:43.890Z,979.31
2018-01-18T12:02:53.848Z,979.12
2018-01-18T12:04:03.824Z,979.37
2018-01-18T12:05:13.519Z,979.47
2018-01-18T12:06:23.482Z,979.42
2018-01-18T12:07:33.435Z,979.37
2018-01-18T12:08:43.476Z,979.33
2018-01-18T12:09:53.411Z,979.34
2018-01-18T12:11:03.382Z,979.24
2018-01-18T12:12:13.322Z,979.09
2018-01-18T12:13:23.341Z,979
2018-01-18T12:14:33.295Z,978.89
2018-01-18T12:15:43.244Z,978.83
2018-01-18T12:16:53.190Z,978.75
2018-01-18T12:18:03.140Z,978.79
2018-01-18T12:19:13.115Z,978.67
2018-01-18T12:20:22.816Z,978.61
2018-01-18T12:21:32.758Z,978.7
2018-01-18T12:22:42.455Z,978.57
2018-01-18T12:23:52.154Z,978.59
2018-01-18T12:25:02.103Z,978.48
2018-01-18T12:26:12.060Z,978.48
2018-01-18T12:27:22.007Z,978.6
2018-01-18T12:28:31.952Z,978.53
2018-01-18T12:29:41.914Z,978.53
2018-01-18T12:30:51.634Z,978.52
2018-01-18T12:32:01.586Z,978.47
2018-01-18T12:33:11.540Z,978.49
2018-01-18T12:34:21.488Z,978.36
2018-01-18T12:35:31.525Z,978.4
2018-01-18T12:36:41.468Z,978.36
2018-01-18T12:37:51.414Z,978.2
2018-01-18T12:39:01.353Z,978.15
2018-01-18T12:40:10.799Z,978.12
2018-01-18T12:41:20.228Z,978.1
2018-01-18T12:42:30.165Z,978
2018-01-18T12:43:39.892Z,978.03
2018-01-18T12:44:49.581Z,977.97
2018-01-18T12:45:59.583Z,977.92
2018-01-18T12:47:09.541Z,977.83
2018-01-18T12:48:19.518Z,977.79
2018-01-18T12:49:29.480Z,977.74
2018-01-18T12:50:39.165Z,977.78
2018-01-18T12:51:48.849Z,977.58
2018-01-18T12:52:58.788Z,977.45
2018-01-18T12:54:08.749Z,977.34
2018-01-18T12:55:18.444Z,977.24
2018-01-18T12:56:28.392Z,977.19
2018-01-18T12:57:38.203Z,977.17
2018-01-18T12:58:48.163Z,977.12
2018-01-18T12:59:58.108Z,977.02
2018-01-18T13:01:08.111Z,977.07
2018-01-18T13:02:18.087Z,977.02
2018-01-18T13:03:27.516Z,976.99
2018-01-18T13:04:37.212Z,976.91
2018-01-18T13:05:47.204Z,976.9
2018-01-18T13:06:56.883Z,976.88
2018-01-18T13:08:06.583Z,976.8
2018-01-18T13:09:16.542Z,976.84
2018-01-18T13:10:26.504Z,976.74
2018-01-18T13:11:36.466Z,976.78
2018-01-18T13:12:46.155Z,976.7
2018-01-18T13:13:55.834Z,976.67
2018-01-18T13:15:05.779Z,976.64
2018-01-18T13:16:15.291Z,976.51
2018-01-18T13:17:25.250Z,976.47
2018-01-18T13:18:34.706Z,976.37
2018-01-18T13:19:44.664Z,976.38
2018-01-18T13:20:54.642Z,976.35
2018-01-18T13:22:04.577Z,976.28
2018-01-18T13:23:14.040Z,976.26
2018-01-18T13:24:24.002Z,976.25
2018-01-18T13:25:33.445Z,976.34
2018-01-18T13:26:43.186Z,976.35
2018-01-18T13:27:53.151Z,976.31
2018-01-18T13:29:02.892Z,976.34
2018-01-18T13:30:12.835Z,976.4
2018-01-18T13:31:22.814Z,976.46
2018-01-18T13:32:32.507Z,976.26
2018-01-18T13:33:42.472Z,976.33
2018-01-18T13:34:52.160Z,976.08
2018-01-18T13:36:01.855Z,976.08
2018-01-18T13:37:11.806Z,975.92
2018-01-18T13:38:21.486Z,975.97
2018-01-18T13:39:31.174Z,975.97
2018-01-18T13:40:41.137Z,976.05
2018-01-18T13:41:51.099Z,976
2018-01-18T13:43:01.045Z,975.98
2018-01-18T13:44:10.478Z,975.89
2018-01-18T13:45:20.429Z,975.84
2018-01-18T13:46:30.120Z,975.86
2018-01-18T13:47:39.813Z,975.88
2018-01-18T13:48:49.780Z,975.81
2018-01-18T13:49:59.733Z,975.78
2018-01-18T13:51:09.682Z,975.73
2018-01-18T13:52:19.632Z,975.79
2018-01-18T13:53:29.567Z,975.76
2018-01-18T13:54:39.036Z,976.08
2018-01-18T13:55:48.992Z,975.83
2018-01-18T13:56:58.991Z,975.78
2018-01-18T13:58:08.955Z,975.92
2018-01-18T13:59:18.958Z,975.54
2018-01-18T14:00:28.906Z,975.65
2018-01-18T14:01:38.885Z,975.48
2018-01-18T14:02:48.838Z,975.69
2018-01-18T14:03:58.953Z,975.55
2018-01-18T14:05:08.922Z,975.62
2018-01-18T14:06:18.886Z,975.56
2018-01-18T14:07:28.887Z,975.51
2018-01-18T14:08:38.846Z,975.41
2018-01-18T14:09:48.942Z,975.59
2018-01-18T14:10:58.664Z,975.44
2018-01-18T14:12:08.634Z,975.62
2018-01-18T14:13:18.611Z,975.67
2018-01-18T14:14:28.544Z,975.48
2018-01-18T14:15:38.248Z,975.44
2018-01-18T14:16:47.691Z,975.5
2018-01-18T14:17:57.644Z,975.73
2018-01-18T14:19:07.601Z,975.51
2018-01-18T14:20:17.566Z,975.85
2018-01-18T14:21:27.525Z,975.52
2018-01-18T14:22:37.483Z,975.55
2018-01-18T14:23:47.174Z,975.73
2018-01-18T14:24:56.858Z,975.65
2018-01-18T14:26:06.552Z,975.59
2018-01-18T14:27:16.251Z,975.86
2018-01-18T14:28:26.217Z,975.63
2018-01-18T14:29:35.717Z,975.57
2018-01-18T14:30:45.453Z,975.84
2018-01-18T14:31:55.408Z,975.62
2018-01-18T14:33:05.107Z,975.63
2018-01-18T14:34:15.059Z,975.65
2018-01-18T14:35:25.070Z,975.99